メインページ
METAR-TAF:

METAR-TAF

空港 :

Tadoule Lake, マニトバ州, カナダ

緯度: 58-42-22N, 経度: 98-30-44W, 海抜: 281m

現時点の気象観測

当レポートは1時間16分前の10:00(UTC)に作成
東/南東の風 8kt
気温 -23°C
湿度 76%
気圧 1001 hPa
視程: 14.5km
高度3300ftの曇り
小雪

METAR: CYBQ 221000Z AUTO 11008KT 9SM -SN OVC033 M23/M26 A2956 RMK SLP044

時間: 05:16 (11:16 UTC)


TAF: 見つかりません

4,000以上の空港の気象観測と天気予報(METAR報とTAF報)

利用可能な観測所は地図上に黄色い丸と赤い丸で示す。

丸の上にカーソルを重ねると観測所名を参照できる。

次にクリックすると気象観測と天気予報を参照できる。

マップの切り替え:黒色「×」印の緑ボタンをクリックして拡大、「-」印の緑ボタンをクリックして縮小、緑色の三角印をクリックして隣りの地図に切り替え


METAR-TAF: